createdAt,value
2018-10-21T00:00:02.885Z,12.90
2018-10-21T00:02:33.194Z,14.43
2018-10-21T00:05:03.464Z,17.37
2018-10-21T00:07:33.729Z,14.00
2018-10-21T00:10:04.910Z,12.63
2018-10-21T00:12:35.235Z,15.93
2018-10-21T00:15:06.146Z,11.67
2018-10-21T00:17:36.366Z,14.30
2018-10-21T00:20:07.242Z,16.03
2018-10-21T00:22:37.523Z,18.57
2018-10-21T00:25:07.973Z,12.67
2018-10-21T00:27:38.402Z,13.20
2018-10-21T00:30:08.687Z,11.60
2018-10-21T00:32:44.344Z,12.87
2018-10-21T00:35:14.594Z,12.83
2018-10-21T00:37:44.969Z,10.87
2018-10-21T00:40:15.225Z,13.60
2018-10-21T00:42:45.515Z,13.23
2018-10-21T00:45:15.813Z,13.83
2018-10-21T00:47:46.047Z,12.47
2018-10-21T00:50:16.326Z,11.87
2018-10-21T00:52:46.602Z,11.53
2018-10-21T00:55:16.862Z,14.33
2018-10-21T00:57:47.150Z,12.07
2018-10-21T01:00:18.018Z,11.90
2018-10-21T01:02:48.315Z,11.80
2018-10-21T01:05:18.549Z,13.00
2018-10-21T01:07:48.846Z,11.63
2018-10-21T01:10:19.107Z,14.40
2018-10-21T01:12:49.379Z,13.30
2018-10-21T01:15:19.646Z,13.17
2018-10-21T01:17:49.929Z,12.57
2018-10-21T01:20:20.170Z,11.90
2018-10-21T01:22:50.461Z,12.40
2018-10-21T01:25:20.719Z,12.53
2018-10-21T01:27:51.106Z,11.93
2018-10-21T01:30:21.370Z,11.20
2018-10-21T01:32:51.621Z,11.73
2018-10-21T01:35:21.869Z,11.50
2018-10-21T01:37:52.157Z,11.10
2018-10-21T01:40:39.899Z,13.33
2018-10-21T01:43:11.790Z,11.80
2018-10-21T01:45:42.034Z,12.13
2018-10-21T01:48:13.387Z,12.23
2018-10-21T01:50:50.286Z,11.10
2018-10-21T01:53:21.306Z,11.73
2018-10-21T01:55:51.602Z,12.00
2018-10-21T01:58:21.881Z,10.67
2018-10-21T02:00:52.150Z,11.77
2018-10-21T02:03:22.422Z,10.73
2018-10-21T02:05:52.706Z,10.93
2018-10-21T02:08:23.016Z,11.87
2018-10-21T02:10:53.252Z,11.30
2018-10-21T02:13:23.529Z,11.00
2018-10-21T02:15:53.790Z,11.50
2018-10-21T02:18:24.058Z,10.67
2018-10-21T02:20:54.285Z,10.87
2018-10-21T02:23:24.562Z,11.63
2018-10-21T02:25:54.816Z,14.33
2018-10-21T02:28:25.125Z,11.20
2018-10-21T02:30:55.383Z,15.23
2018-10-21T02:33:26.444Z,11.80
2018-10-21T02:35:56.597Z,12.47
2018-10-21T02:38:26.852Z,11.77
2018-10-21T02:41:40.862Z,11.83
2018-10-21T02:44:13.555Z,10.63
2018-10-21T02:46:44.414Z,13.80
2018-10-21T02:49:15.460Z,11.77
2018-10-21T02:51:50.961Z,11.07
2018-10-21T02:54:27.610Z,10.37
2018-10-21T02:56:57.973Z,11.07
2018-10-21T02:59:28.422Z,9.77
2018-10-21T03:01:58.672Z,10.70
2018-10-21T03:04:28.939Z,10.20
2018-10-21T03:06:59.217Z,11.20
2018-10-21T03:09:29.853Z,10.73
2018-10-21T03:12:00.173Z,11.87
2018-10-21T03:14:30.445Z,10.47
2018-10-21T03:17:00.709Z,9.97
2018-10-21T03:19:31.017Z,10.63
2018-10-21T03:22:01.271Z,11.50
2018-10-21T03:24:31.540Z,12.03
2018-10-21T03:27:01.824Z,11.70
2018-10-21T03:29:32.085Z,9.87
2018-10-21T03:32:02.347Z,12.50
2018-10-21T03:34:32.635Z,10.30
2018-10-21T03:37:02.894Z,11.70
2018-10-21T03:39:33.172Z,12.90
2018-10-21T03:42:03.426Z,10.43
2018-10-21T03:44:33.701Z,10.63
2018-10-21T03:47:03.955Z,10.67
2018-10-21T03:49:34.225Z,10.73
2018-10-21T03:52:04.534Z,12.50
2018-10-21T03:54:34.822Z,11.63
2018-10-21T03:57:05.291Z,11.43
2018-10-21T03:59:35.615Z,11.33
2018-10-21T04:02:05.881Z,11.77
2018-10-21T04:04:36.173Z,11.03
2018-10-21T04:07:12.860Z,9.60
2018-10-21T04:09:43.130Z,10.13
2018-10-21T04:12:13.406Z,9.63
2018-10-21T04:14:43.671Z,11.37
2018-10-21T04:17:13.938Z,11.37
2018-10-21T04:19:44.194Z,10.07
2018-10-21T04:22:14.676Z,11.97
2018-10-21T04:24:45.091Z,9.50
2018-10-21T04:27:15.389Z,10.07
2018-10-21T04:29:45.702Z,9.67
2018-10-21T04:32:15.974Z,10.27
2018-10-21T04:34:49.131Z,9.13
2018-10-21T04:37:36.774Z,8.90
2018-10-21T04:40:25.274Z,10.83
2018-10-21T04:42:58.485Z,8.70
2018-10-21T04:45:30.103Z,8.67
2018-10-21T04:48:02.229Z,8.67
2018-10-21T04:50:34.067Z,8.97
2018-10-21T04:53:04.415Z,9.40
2018-10-21T04:55:34.694Z,10.90
2018-10-21T04:58:05.373Z,9.37
2018-10-21T05:00:35.630Z,10.63
2018-10-21T05:03:05.845Z,10.80
2018-10-21T05:05:36.131Z,8.70
2018-10-21T05:08:06.593Z,10.70
2018-10-21T05:10:37.970Z,9.17
2018-10-21T05:13:09.222Z,11.00
2018-10-21T05:15:40.449Z,8.30
2018-10-21T05:18:10.710Z,9.47
2018-10-21T05:20:40.988Z,8.60
2018-10-21T05:23:11.326Z,9.50
2018-10-21T05:25:41.602Z,10.17
2018-10-21T05:28:11.969Z,12.20
2018-10-21T05:30:42.182Z,9.33
2018-10-21T05:33:12.426Z,8.67
2018-10-21T05:35:42.699Z,9.87
2018-10-21T05:38:12.970Z,8.97
2018-10-21T05:40:43.347Z,8.97
2018-10-21T05:43:13.557Z,9.90
2018-10-21T05:45:43.813Z,10.17
2018-10-21T05:48:14.085Z,9.93
2018-10-21T05:50:44.365Z,10.50
2018-10-21T05:53:14.646Z,8.90
2018-10-21T05:55:44.900Z,9.20
2018-10-21T05:58:15.167Z,9.57
2018-10-21T06:00:45.426Z,12.60
2018-10-21T06:03:15.710Z,9.70
2018-10-21T06:05:48.054Z,10.27
2018-10-21T06:08:18.300Z,8.80
2018-10-21T06:10:48.548Z,10.90
2018-10-21T06:13:18.822Z,10.40
2018-10-21T06:15:49.166Z,9.40
2018-10-21T06:18:22.701Z,8.17
2018-10-21T06:20:54.853Z,7.87
2018-10-21T06:23:25.117Z,8.00
2018-10-21T06:25:55.390Z,10.10
2018-10-21T06:28:25.719Z,11.80
2018-10-21T06:30:56.010Z,11.20
2018-10-21T06:33:26.271Z,10.50
2018-10-21T06:35:56.553Z,13.63
2018-10-21T06:38:26.859Z,11.90
2018-10-21T06:40:57.129Z,11.03
2018-10-21T06:43:29.901Z,8.47
2018-10-21T06:46:00.178Z,9.90
2018-10-21T06:48:30.494Z,8.40
2018-10-21T06:51:00.880Z,10.37
2018-10-21T06:53:31.143Z,9.13
2018-10-21T06:56:01.403Z,8.97
2018-10-21T06:58:31.675Z,8.87
2018-10-21T07:01:01.963Z,11.23
2018-10-21T07:03:32.233Z,9.30
2018-10-21T07:06:18.409Z,9.50
2018-10-21T07:08:49.523Z,9.00
2018-10-21T07:11:19.839Z,9.87
2018-10-21T07:13:50.140Z,10.33
2018-10-21T07:16:20.516Z,9.83
2018-10-21T07:18:51.238Z,11.40
2018-10-21T07:21:21.500Z,9.30
2018-10-21T07:23:51.743Z,8.33
2018-10-21T07:26:22.078Z,10.10
2018-10-21T07:28:52.335Z,9.60
2018-10-21T07:31:22.618Z,10.60
2018-10-21T07:33:52.894Z,11.57
2018-10-21T07:36:23.620Z,13.77
2018-10-21T07:38:54.061Z,10.07
2018-10-21T07:41:24.482Z,9.90
2018-10-21T07:43:54.779Z,14.03
2018-10-21T07:46:25.059Z,9.10
2018-10-21T07:48:55.341Z,12.50
2018-10-21T07:51:25.621Z,9.60
2018-10-21T07:53:55.911Z,12.00
2018-10-21T07:56:26.158Z,9.27
2018-10-21T07:58:56.429Z,11.30
2018-10-21T08:01:26.729Z,9.17
2018-10-21T08:03:56.958Z,7.17
2018-10-21T08:06:44.145Z,8.60
2018-10-21T08:09:14.398Z,9.33
2018-10-21T08:11:44.666Z,10.53
2018-10-21T08:14:14.954Z,10.93
2018-10-21T08:16:45.214Z,11.50
2018-10-21T08:19:22.261Z,8.97
2018-10-21T08:21:52.504Z,9.87
2018-10-21T08:24:22.789Z,10.37
2018-10-21T08:26:53.039Z,9.20
2018-10-21T08:29:23.322Z,8.43
2018-10-21T08:31:53.570Z,9.43
2018-10-21T08:34:23.854Z,8.93
2018-10-21T08:36:54.102Z,11.13
2018-10-21T08:39:24.382Z,10.23
2018-10-21T08:41:54.636Z,9.17
2018-10-21T08:44:24.911Z,8.67
2018-10-21T08:46:55.150Z,9.70
2018-10-21T08:49:25.458Z,9.40
2018-10-21T08:51:55.778Z,8.50
2018-10-21T08:54:26.019Z,9.67
2018-10-21T08:56:56.282Z,10.90
2018-10-21T08:59:26.546Z,9.70
2018-10-21T09:01:56.857Z,9.37
2018-10-21T09:04:27.202Z,9.27
2018-10-21T09:06:57.519Z,7.33
2018-10-21T09:09:27.747Z,8.80
2018-10-21T09:11:58.016Z,7.47
2018-10-21T09:14:28.290Z,6.63
2018-10-21T09:16:58.569Z,8.73
2018-10-21T09:19:28.857Z,5.37
2018-10-21T09:21:59.139Z,6.80
2018-10-21T09:24:29.390Z,4.57
2018-10-21T09:26:59.710Z,4.97
2018-10-21T09:29:29.991Z,5.33
2018-10-21T09:32:00.241Z,5.90
2018-10-21T09:34:30.486Z,6.57
2018-10-21T09:37:00.795Z,4.93
2018-10-21T09:39:30.990Z,6.20
2018-10-21T09:42:01.316Z,4.10
2018-10-21T09:44:31.507Z,4.37
2018-10-21T09:47:01.777Z,3.43
2018-10-21T09:49:32.034Z,5.33
2018-10-21T09:52:02.356Z,8.57
2018-10-21T09:54:32.622Z,3.60
2018-10-21T09:57:02.890Z,3.60
2018-10-21T09:59:33.137Z,4.30
2018-10-21T10:02:08.658Z,4.77
2018-10-21T10:04:38.915Z,3.67
2018-10-21T10:07:09.309Z,5.33
2018-10-21T10:09:39.526Z,4.13
2018-10-21T10:12:09.795Z,4.23
2018-10-21T10:14:40.043Z,3.90
2018-10-21T10:17:10.298Z,3.13
2018-10-21T10:19:40.546Z,3.00
2018-10-21T10:22:10.905Z,3.77
2018-10-21T10:24:41.078Z,3.43
2018-10-21T10:27:11.389Z,3.13
2018-10-21T10:29:41.647Z,2.80
2018-10-21T10:32:11.919Z,2.63
2018-10-21T10:34:42.167Z,3.07
2018-10-21T10:37:12.505Z,3.70
2018-10-21T10:39:42.780Z,3.37
2018-10-21T10:42:13.127Z,2.67
2018-10-21T10:44:43.330Z,2.60
2018-10-21T10:47:13.694Z,3.97
2018-10-21T10:49:43.970Z,3.10
2018-10-21T10:52:14.265Z,2.40
2018-10-21T10:54:44.489Z,1.90
2018-10-21T10:57:14.763Z,2.87
2018-10-21T10:59:45.051Z,2.80
2018-10-21T11:02:15.366Z,3.67
2018-10-21T11:04:45.982Z,2.20
2018-10-21T11:07:16.336Z,1.97
2018-10-21T11:09:47.174Z,4.70
2018-10-21T11:12:17.458Z,3.50
2018-10-21T11:14:47.766Z,4.33
2018-10-21T11:17:18.032Z,3.37
2018-10-21T11:19:48.296Z,1.70
2018-10-21T11:22:18.585Z,2.83
2018-10-21T11:24:49.493Z,4.50
2018-10-21T11:27:19.766Z,5.63
2018-10-21T11:29:50.011Z,4.83
2018-10-21T11:32:20.271Z,4.63
2018-10-21T11:34:50.518Z,2.93
2018-10-21T11:37:20.880Z,3.53
2018-10-21T11:39:51.167Z,3.80
2018-10-21T11:42:21.445Z,2.53
2018-10-21T11:44:51.704Z,3.50
2018-10-21T11:47:22.033Z,2.17
2018-10-21T11:49:52.296Z,4.30
2018-10-21T11:52:23.040Z,2.67
2018-10-21T11:54:53.273Z,3.10
2018-10-21T11:57:23.833Z,3.27
2018-10-21T11:59:54.093Z,3.47
2018-10-21T12:02:24.362Z,4.70
2018-10-21T12:04:54.594Z,3.00
2018-10-21T12:07:24.877Z,4.23
2018-10-21T12:09:55.176Z,3.80
2018-10-21T12:12:25.423Z,4.20
2018-10-21T12:14:55.686Z,3.03
2018-10-21T12:17:25.993Z,3.43
2018-10-21T12:19:56.338Z,3.43
2018-10-21T12:22:26.581Z,3.40
2018-10-21T12:24:56.824Z,2.37
2018-10-21T12:27:27.073Z,3.80
2018-10-21T12:29:57.327Z,6.43
2018-10-21T12:32:27.576Z,2.97
2018-10-21T12:34:57.878Z,4.73
2018-10-21T12:37:28.087Z,3.30
2018-10-21T12:39:58.424Z,2.40
2018-10-21T12:42:28.612Z,3.80
2018-10-21T12:44:58.889Z,3.63
2018-10-21T12:47:29.162Z,2.90
2018-10-21T12:49:59.450Z,3.40
2018-10-21T12:52:29.706Z,2.77
2018-10-21T12:55:00.000Z,2.37
2018-10-21T12:57:30.238Z,3.33
2018-10-21T13:00:00.502Z,4.57
2018-10-21T13:02:30.738Z,2.43
2018-10-21T13:05:01.019Z,3.17
2018-10-21T13:07:31.624Z,2.63
2018-10-21T13:10:01.935Z,3.60
2018-10-21T13:12:32.170Z,3.37
2018-10-21T13:15:02.451Z,3.60
2018-10-21T13:17:32.686Z,4.23
2018-10-21T13:20:02.972Z,3.27
2018-10-21T13:22:33.222Z,4.40
2018-10-21T13:25:03.542Z,5.43
2018-10-21T13:27:33.843Z,4.03
2018-10-21T13:30:04.161Z,3.47
2018-10-21T13:32:34.434Z,3.03
2018-10-21T13:35:04.943Z,2.83
2018-10-21T13:37:35.189Z,2.47
2018-10-21T13:40:05.858Z,7.27
2018-10-21T13:42:36.074Z,2.50
2018-10-21T13:45:06.815Z,2.50
2018-10-21T13:47:37.066Z,2.70
2018-10-21T13:50:08.245Z,2.57
2018-10-21T13:52:38.515Z,4.33
2018-10-21T13:55:08.875Z,4.70
2018-10-21T13:57:39.102Z,4.47
2018-10-21T14:00:10.171Z,4.20
2018-10-21T14:02:40.381Z,3.10
2018-10-21T14:05:10.818Z,4.20
2018-10-21T14:07:41.225Z,4.43
2018-10-21T14:10:11.510Z,4.27
2018-10-21T14:12:41.721Z,2.93
2018-10-21T14:15:11.988Z,2.90
2018-10-21T14:17:42.238Z,3.87
2018-10-21T14:20:12.966Z,3.63
2018-10-21T14:22:43.250Z,3.83
2018-10-21T14:25:13.643Z,3.77
2018-10-21T14:27:43.915Z,4.17
2018-10-21T14:30:14.165Z,3.30
2018-10-21T14:32:44.387Z,7.47
2018-10-21T14:35:14.667Z,4.27
2018-10-21T14:37:44.940Z,4.00
2018-10-21T14:40:15.205Z,4.93
2018-10-21T14:42:45.470Z,4.33
2018-10-21T14:45:15.825Z,3.10
2018-10-21T14:47:45.974Z,3.83
2018-10-21T14:50:16.231Z,3.67
2018-10-21T14:52:46.476Z,3.17
2018-10-21T14:55:16.807Z,4.33
2018-10-21T14:57:47.005Z,3.40
2018-10-21T15:00:17.359Z,3.83
2018-10-21T15:02:47.574Z,6.33
2018-10-21T15:05:17.837Z,5.77
2018-10-21T15:07:48.336Z,6.17
2018-10-21T15:10:18.667Z,5.33
2018-10-21T15:12:48.868Z,14.50
2018-10-21T15:15:19.133Z,4.67
2018-10-21T15:17:49.387Z,3.60
2018-10-21T15:20:19.667Z,5.00
2018-10-21T15:22:49.970Z,3.60
2018-10-21T15:25:20.215Z,4.43
2018-10-21T15:27:50.487Z,5.30
2018-10-21T15:30:20.787Z,7.83
2018-10-21T15:32:51.016Z,4.83
2018-10-21T15:35:21.290Z,5.53
2018-10-21T15:37:51.537Z,4.47
2018-10-21T15:40:22.447Z,4.03
2018-10-21T15:42:52.745Z,4.30
2018-10-21T15:45:23.047Z,5.87
2018-10-21T15:47:53.401Z,6.40
2018-10-21T15:50:23.699Z,5.23
2018-10-21T15:52:53.955Z,4.33
2018-10-21T15:55:24.205Z,5.03
2018-10-21T15:57:54.503Z,4.17
2018-10-21T16:00:24.771Z,6.27
2018-10-21T16:02:55.066Z,7.53
2018-10-21T16:05:25.331Z,6.93
2018-10-21T16:07:55.672Z,5.37
2018-10-21T16:10:25.866Z,4.77
2018-10-21T16:12:56.133Z,5.50
2018-10-21T16:15:27.210Z,5.80
2018-10-21T16:17:58.129Z,4.17
2018-10-21T16:20:28.365Z,3.90
2018-10-21T16:22:59.270Z,5.60
2018-10-21T16:25:29.649Z,4.23
2018-10-21T16:27:59.914Z,4.73
2018-10-21T16:30:30.104Z,4.33
2018-10-21T16:33:00.451Z,5.00
2018-10-21T16:35:30.638Z,7.70
2018-10-21T16:38:00.970Z,4.53
2018-10-21T16:40:31.238Z,5.43
2018-10-21T16:43:01.562Z,8.77
2018-10-21T16:45:31.811Z,4.30
2018-10-21T16:48:02.166Z,3.40
2018-10-21T16:50:32.341Z,4.93
2018-10-21T16:53:02.690Z,7.07
2018-10-21T16:55:32.890Z,6.57
2018-10-21T16:58:03.210Z,3.70
2018-10-21T17:00:33.683Z,3.83
2018-10-21T17:03:04.153Z,5.60
2018-10-21T17:05:34.367Z,6.40
2018-10-21T17:08:04.629Z,4.50
2018-10-21T17:10:35.230Z,5.50
2018-10-21T17:13:05.263Z,6.33
2018-10-21T17:15:35.833Z,7.77
2018-10-21T17:18:06.754Z,5.90
2018-10-21T17:20:37.040Z,4.30
2018-10-21T17:23:07.491Z,4.07
2018-10-21T17:25:37.753Z,4.70
2018-10-21T17:28:08.067Z,4.07
2018-10-21T17:30:38.346Z,3.17
2018-10-21T17:33:08.555Z,6.47
2018-10-21T17:35:38.811Z,5.43
2018-10-21T17:38:09.072Z,4.30
2018-10-21T17:40:39.382Z,6.13
2018-10-21T17:43:09.612Z,5.30
2018-10-21T17:45:39.828Z,5.73
2018-10-21T17:48:10.782Z,5.77
2018-10-21T17:50:42.961Z,6.53
2018-10-21T17:53:13.233Z,4.77
2018-10-21T17:55:43.557Z,6.53
2018-10-21T17:58:13.862Z,5.80
2018-10-21T18:00:44.086Z,6.07
2018-10-21T18:03:14.340Z,8.23
2018-10-21T18:05:44.974Z,6.90
2018-10-21T18:08:15.221Z,6.20
2018-10-21T18:10:45.495Z,9.27
2018-10-21T18:13:15.851Z,5.53
2018-10-21T18:15:46.021Z,5.87
2018-10-21T18:18:16.275Z,6.03
2018-10-21T18:20:46.554Z,9.23
2018-10-21T18:23:16.791Z,6.13
2018-10-21T18:25:47.104Z,8.13
2018-10-21T18:28:17.365Z,6.83
2018-10-21T18:30:47.686Z,5.50
2018-10-21T18:33:17.934Z,5.10
2018-10-21T18:35:48.281Z,6.77
2018-10-21T18:38:18.545Z,7.20
2018-10-21T18:40:48.935Z,4.63
2018-10-21T18:43:19.180Z,6.23
2018-10-21T18:45:49.392Z,5.37
2018-10-21T18:48:19.647Z,6.30
2018-10-21T18:50:49.918Z,6.40
2018-10-21T18:53:20.118Z,5.67
2018-10-21T18:55:50.363Z,5.67
2018-10-21T18:58:20.632Z,6.73
2018-10-21T19:00:50.878Z,7.57
2018-10-21T19:03:21.125Z,7.60
2018-10-21T19:05:51.392Z,6.60
2018-10-21T19:08:21.632Z,4.50
2018-10-21T19:10:51.942Z,5.20
2018-10-21T19:13:22.362Z,8.10
2018-10-21T19:15:52.474Z,5.30
2018-10-21T19:18:22.729Z,5.80
2018-10-21T19:20:52.997Z,6.43
2018-10-21T19:23:23.238Z,5.47
2018-10-21T19:25:53.541Z,7.17
2018-10-21T19:28:23.809Z,7.17
2018-10-21T19:30:54.132Z,5.50
2018-10-21T19:33:24.298Z,7.43
2018-10-21T19:35:54.622Z,5.97
2018-10-21T19:38:24.870Z,7.17
2018-10-21T19:40:55.152Z,7.33
2018-10-21T19:43:25.490Z,9.10
2018-10-21T19:45:55.679Z,6.23
2018-10-21T19:48:25.913Z,8.03
2018-10-21T19:50:56.199Z,8.33
2018-10-21T19:53:26.464Z,9.00
2018-10-21T19:55:56.766Z,12.30
2018-10-21T19:58:27.041Z,9.43
2018-10-21T20:00:57.313Z,8.40
2018-10-21T20:03:27.527Z,11.13
2018-10-21T20:05:57.811Z,11.07
2018-10-21T20:08:28.049Z,8.77
2018-10-21T20:10:58.322Z,9.03
2018-10-21T20:13:28.584Z,8.27
2018-10-21T20:15:58.872Z,10.53
2018-10-21T20:18:29.132Z,7.80
2018-10-21T20:20:59.466Z,9.37
2018-10-21T20:23:29.745Z,7.70
2018-10-21T20:26:00.023Z,7.77
2018-10-21T20:28:30.346Z,11.67
2018-10-21T20:31:00.634Z,9.20
2018-10-21T20:33:30.879Z,9.27
2018-10-21T20:36:01.168Z,9.73
2018-10-21T20:38:31.431Z,10.47
2018-10-21T20:41:01.731Z,8.10
2018-10-21T20:43:32.014Z,8.67
2018-10-21T20:46:02.297Z,8.03
2018-10-21T20:48:32.632Z,7.27
2018-10-21T20:51:02.929Z,7.60
2018-10-21T20:53:33.152Z,7.77
2018-10-21T20:56:03.403Z,8.47
2018-10-21T20:58:33.778Z,7.83
2018-10-21T21:01:04.034Z,8.43
2018-10-21T21:03:34.318Z,8.73
2018-10-21T21:06:04.607Z,11.63
2018-10-21T21:08:34.873Z,7.67
2018-10-21T21:11:05.338Z,8.90
2018-10-21T21:13:35.669Z,7.77
2018-10-21T21:16:06.491Z,8.00
2018-10-21T21:18:36.770Z,11.30
2018-10-21T21:21:07.027Z,7.87
2018-10-21T21:23:37.295Z,8.00
2018-10-21T21:26:07.562Z,8.87
2018-10-21T21:28:37.863Z,10.93
2018-10-21T21:31:08.118Z,8.93
2018-10-21T21:33:38.374Z,8.40
2018-10-21T21:36:08.641Z,8.60
2018-10-21T21:38:38.907Z,8.93
2018-10-21T21:41:09.161Z,7.80
2018-10-21T21:43:39.438Z,7.83
2018-10-21T21:46:09.738Z,8.80
2018-10-21T21:48:39.974Z,7.83
2018-10-21T21:51:10.210Z,8.87
2018-10-21T21:53:40.454Z,8.60
2018-10-21T21:56:10.694Z,7.90
2018-10-21T21:58:40.977Z,8.37
2018-10-21T22:01:11.233Z,7.80
2018-10-21T22:03:41.505Z,8.50
2018-10-21T22:06:11.803Z,8.50
2018-10-21T22:08:42.166Z,8.40
2018-10-21T22:11:12.388Z,7.80
2018-10-21T22:13:42.638Z,10.83
2018-10-21T22:16:12.943Z,10.07
2018-10-21T22:18:43.181Z,11.03
2018-10-21T22:21:13.437Z,8.47
2018-10-21T22:23:43.697Z,8.57
2018-10-21T22:26:13.983Z,8.47
2018-10-21T22:28:44.291Z,7.73
2018-10-21T22:31:14.515Z,9.30
2018-10-21T22:33:44.798Z,9.50
2018-10-21T22:36:15.106Z,12.53
2018-10-21T22:38:45.314Z,8.73
2018-10-21T22:41:15.540Z,8.17
2018-10-21T22:43:45.860Z,9.33
2018-10-21T22:46:16.200Z,9.00
2018-10-21T22:48:46.389Z,7.80
2018-10-21T22:51:16.683Z,11.07
2018-10-21T22:53:46.954Z,8.93
2018-10-21T22:56:17.222Z,9.47
2018-10-21T22:58:47.498Z,8.30
2018-10-21T23:01:17.785Z,10.70
2018-10-21T23:03:48.033Z,8.20
2018-10-21T23:06:18.389Z,7.73
2018-10-21T23:08:48.566Z,8.13
2018-10-21T23:11:18.854Z,9.50
2018-10-21T23:13:49.102Z,10.53
2018-10-21T23:16:19.491Z,8.80
2018-10-21T23:18:49.848Z,9.07
2018-10-21T23:21:19.953Z,7.50
2018-10-21T23:23:50.182Z,7.47
2018-10-21T23:26:20.441Z,8.10
2018-10-21T23:28:50.758Z,7.13
2018-10-21T23:31:21.035Z,6.87
2018-10-21T23:33:51.314Z,8.63
2018-10-21T23:36:21.602Z,7.63
2018-10-21T23:38:51.851Z,10.43
2018-10-21T23:41:22.131Z,7.57
2018-10-21T23:43:52.391Z,6.60
2018-10-21T23:46:22.719Z,6.40
2018-10-21T23:48:53.790Z,7.10
2018-10-21T23:51:24.202Z,6.60
2018-10-21T23:53:54.484Z,7.10
2018-10-21T23:56:24.736Z,6.63
2018-10-21T23:58:54.994Z,6.80
